createdAt,value
2022-10-10T00:00:06.984Z,10.80
2022-10-10T00:02:36.508Z,10.70
2022-10-10T00:05:05.124Z,10.70
2022-10-10T00:07:33.616Z,10.70
2022-10-10T00:10:01.951Z,10.70
2022-10-10T00:12:33.436Z,10.60
2022-10-10T00:15:03.349Z,10.60
2022-10-10T00:17:31.731Z,10.60
2022-10-10T00:20:00.278Z,10.60
2022-10-10T00:22:28.660Z,10.70
2022-10-10T00:24:56.863Z,10.80
2022-10-10T00:27:25.036Z,10.80
2022-10-10T00:29:53.617Z,10.70
2022-10-10T00:32:23.173Z,10.70
2022-10-10T00:34:51.342Z,10.80
2022-10-10T00:37:19.495Z,10.90
2022-10-10T00:39:47.693Z,10.80
2022-10-10T00:42:17.349Z,10.80
2022-10-10T00:44:48.054Z,10.80
2022-10-10T00:47:16.134Z,10.90
2022-10-10T00:49:46.052Z,10.90
2022-10-10T00:52:14.567Z,10.80
2022-10-10T00:54:43.048Z,10.80
2022-10-10T00:57:14.718Z,10.80
2022-10-10T00:59:44.720Z,10.90
2022-10-10T01:02:13.153Z,10.90
2022-10-10T01:04:45.633Z,11.00
2022-10-10T01:07:19.542Z,11.00
2022-10-10T01:09:49.900Z,11.10
2022-10-10T01:12:27.982Z,11.00
2022-10-10T01:15:05.246Z,11.10
2022-10-10T01:17:40.599Z,11.20
2022-10-10T01:20:46.909Z,11.10
2022-10-10T01:23:41.123Z,11.10
2022-10-10T01:26:33.429Z,11.20
2022-10-10T01:29:11.248Z,11.20
2022-10-10T01:31:44.328Z,11.10
2022-10-10T01:34:24.020Z,11.10
2022-10-10T01:36:59.974Z,11.10
2022-10-10T01:39:36.606Z,11.10
2022-10-10T01:42:11.710Z,11.10
2022-10-10T01:44:45.876Z,11.00
2022-10-10T01:47:16.828Z,10.90
2022-10-10T01:49:46.545Z,10.90
2022-10-10T01:52:28.361Z,10.90
2022-10-10T01:55:11.365Z,10.80
2022-10-10T01:57:53.426Z,10.80
2022-10-10T02:00:23.061Z,10.80
2022-10-10T02:02:56.744Z,10.80
2022-10-10T02:05:33.827Z,10.80
2022-10-10T02:08:09.023Z,10.90
2022-10-10T02:10:47.552Z,10.80
2022-10-10T02:13:17.850Z,10.80
2022-10-10T02:15:50.751Z,10.80
2022-10-10T02:18:22.645Z,10.80
2022-10-10T02:20:52.505Z,10.80
2022-10-10T02:23:23.133Z,10.70
2022-10-10T02:25:53.914Z,10.70
2022-10-10T02:28:27.080Z,10.60
2022-10-10T02:31:00.499Z,10.60
2022-10-10T02:33:33.652Z,10.50
2022-10-10T02:36:02.757Z,10.50
2022-10-10T02:38:32.133Z,10.50
2022-10-10T02:41:04.029Z,10.60
2022-10-10T02:43:33.866Z,10.80
2022-10-10T02:46:06.153Z,10.90
2022-10-10T02:48:36.916Z,11.00
2022-10-10T02:51:05.664Z,11.00
2022-10-10T02:53:34.313Z,11.00
2022-10-10T02:56:02.431Z,11.10
2022-10-10T02:58:31.332Z,11.10
2022-10-10T03:00:59.600Z,11.20
2022-10-10T03:03:29.266Z,11.30
2022-10-10T03:05:59.283Z,11.30
2022-10-10T03:08:27.730Z,11.20
2022-10-10T03:11:02.758Z,11.30
2022-10-10T03:13:32.892Z,11.20
2022-10-10T03:16:04.492Z,11.20
2022-10-10T03:18:48.880Z,11.20
2022-10-10T03:21:21.124Z,11.30
2022-10-10T03:23:49.278Z,11.40
2022-10-10T03:26:17.644Z,11.40
2022-10-10T03:28:50.234Z,11.40
2022-10-10T03:31:31.726Z,11.50
2022-10-10T03:34:04.147Z,11.50
2022-10-10T03:36:36.203Z,11.50
2022-10-10T03:39:12.079Z,11.60
2022-10-10T03:41:44.751Z,11.50
2022-10-10T03:44:15.593Z,11.40
2022-10-10T03:46:44.924Z,11.40
2022-10-10T03:49:18.239Z,11.30
2022-10-10T03:51:46.288Z,11.20
2022-10-10T03:54:16.590Z,11.20
2022-10-10T03:56:44.810Z,11.00
2022-10-10T03:59:19.722Z,11.00
2022-10-10T04:01:50.860Z,11.00
2022-10-10T04:04:26.680Z,11.00
2022-10-10T04:07:14.397Z,10.90
2022-10-10T04:09:47.080Z,10.90
2022-10-10T04:12:17.748Z,10.90
2022-10-10T04:14:50.330Z,10.90
2022-10-10T04:17:19.816Z,10.90
2022-10-10T04:19:55.090Z,10.80
2022-10-10T04:22:24.856Z,10.90
2022-10-10T04:24:53.025Z,10.80
2022-10-10T04:27:21.472Z,10.80
2022-10-10T04:29:50.099Z,10.80
2022-10-10T04:32:20.414Z,10.80
2022-10-10T04:34:50.300Z,10.80
2022-10-10T04:37:18.422Z,10.80
2022-10-10T04:39:46.549Z,10.90
2022-10-10T04:42:14.881Z,11.00
2022-10-10T04:44:42.950Z,11.00
2022-10-10T04:47:10.966Z,10.90
2022-10-10T04:49:42.044Z,10.80
2022-10-10T04:52:12.262Z,10.80
2022-10-10T04:54:40.912Z,10.70
2022-10-10T04:57:09.046Z,10.70
2022-10-10T04:59:37.090Z,10.70
2022-10-10T05:02:07.262Z,10.60
2022-10-10T05:04:35.730Z,10.50
2022-10-10T05:07:03.812Z,10.50
2022-10-10T05:09:33.765Z,10.50
2022-10-10T05:12:04.608Z,10.40
2022-10-10T05:14:42.503Z,10.50
2022-10-10T05:17:12.915Z,10.60
2022-10-10T05:19:40.972Z,10.60
2022-10-10T05:22:09.050Z,10.70
2022-10-10T05:24:38.493Z,10.60
2022-10-10T05:27:06.559Z,10.60
2022-10-10T05:29:34.626Z,10.50
2022-10-10T05:32:06.477Z,10.50
2022-10-10T05:34:43.323Z,10.40
2022-10-10T05:37:11.485Z,10.40
2022-10-10T05:39:41.136Z,10.40
2022-10-10T05:42:09.188Z,10.40
2022-10-10T05:44:37.398Z,10.40
2022-10-10T05:47:05.504Z,10.40
2022-10-10T05:49:33.655Z,10.50
2022-10-10T05:52:01.618Z,10.50
2022-10-10T05:54:29.714Z,10.60
2022-10-10T05:56:59.449Z,10.60
2022-10-10T05:59:29.515Z,10.70
2022-10-10T06:02:00.716Z,10.70
2022-10-10T06:04:29.150Z,10.80
2022-10-10T06:06:57.386Z,10.80
2022-10-10T06:09:35.534Z,10.90
2022-10-10T06:12:05.305Z,11.00
2022-10-10T06:14:36.918Z,11.00
2022-10-10T06:17:07.175Z,11.10
2022-10-10T06:19:38.366Z,11.10
2022-10-10T06:22:29.725Z,11.20
2022-10-10T06:25:04.169Z,11.30
2022-10-10T06:27:34.065Z,11.30
2022-10-10T06:30:04.598Z,11.40
2022-10-10T06:32:35.485Z,11.50
2022-10-10T06:35:03.819Z,11.60
2022-10-10T06:37:34.087Z,11.70
2022-10-10T06:40:02.454Z,11.80
2022-10-10T06:42:30.754Z,11.90
2022-10-10T06:45:00.568Z,12.10
2022-10-10T06:47:31.190Z,12.10
2022-10-10T06:50:00.340Z,12.30
2022-10-10T06:52:30.136Z,12.30
2022-10-10T06:55:04.064Z,12.40
2022-10-10T06:57:32.212Z,12.50
2022-10-10T07:00:01.938Z,12.60
2022-10-10T07:02:30.212Z,12.60
2022-10-10T07:05:00.784Z,12.70
2022-10-10T07:07:37.438Z,12.70
2022-10-10T07:10:09.892Z,12.80
2022-10-10T07:12:44.239Z,12.90
2022-10-10T07:15:14.678Z,12.90
2022-10-10T07:17:42.678Z,13.10
2022-10-10T07:20:10.897Z,13.10
2022-10-10T07:22:41.895Z,13.20
2022-10-10T07:25:14.556Z,13.20
2022-10-10T07:27:44.685Z,13.30
2022-10-10T07:30:15.218Z,13.30
2022-10-10T07:32:43.637Z,13.40
2022-10-10T07:35:24.651Z,13.30
2022-10-10T07:38:11.889Z,13.40
2022-10-10T07:41:06.057Z,13.40
2022-10-10T07:44:06.313Z,13.40
2022-10-10T07:47:15.974Z,13.50
2022-10-10T07:50:01.365Z,13.50
2022-10-10T07:52:43.513Z,13.50
2022-10-10T07:55:12.130Z,13.70
2022-10-10T07:57:44.874Z,13.60
2022-10-10T08:00:14.080Z,13.70
2022-10-10T08:02:43.549Z,13.80
2022-10-10T08:05:12.611Z,13.90
2022-10-10T08:07:43.621Z,13.80
2022-10-10T08:10:28.842Z,13.80
2022-10-10T08:12:57.439Z,13.80
2022-10-10T08:15:27.847Z,13.70
2022-10-10T08:18:02.170Z,13.80
2022-10-10T08:20:30.399Z,13.80
2022-10-10T08:22:59.056Z,13.90
2022-10-10T08:25:27.668Z,14.10
2022-10-10T08:27:55.827Z,14.10
2022-10-10T08:30:26.316Z,14.10
2022-10-10T08:32:56.817Z,14.10
2022-10-10T08:35:26.331Z,14.10
2022-10-10T08:37:59.393Z,14.10
2022-10-10T08:40:30.984Z,14.00
2022-10-10T08:43:03.510Z,14.10
2022-10-10T08:45:34.147Z,14.20
2022-10-10T08:48:06.647Z,14.20
2022-10-10T08:50:41.880Z,14.20
2022-10-10T08:53:14.644Z,14.20
2022-10-10T08:55:44.893Z,14.20
2022-10-10T08:58:23.970Z,14.30
2022-10-10T09:01:00.651Z,14.30
2022-10-10T09:03:36.351Z,14.50
2022-10-10T09:06:27.513Z,14.70
2022-10-10T09:09:07.764Z,15.00
2022-10-10T09:11:53.847Z,15.20
2022-10-10T09:14:34.936Z,15.50
2022-10-10T09:17:08.093Z,15.70
2022-10-10T09:19:50.934Z,15.70
2022-10-10T09:22:24.674Z,15.90
2022-10-10T09:24:56.269Z,16.00
2022-10-10T09:27:29.485Z,16.00
2022-10-10T09:30:04.220Z,16.00
2022-10-10T09:32:38.711Z,16.00
2022-10-10T09:35:17.203Z,16.00
2022-10-10T09:37:49.780Z,15.90
2022-10-10T09:40:25.049Z,15.90
2022-10-10T09:42:53.204Z,15.80
2022-10-10T09:45:25.783Z,15.80
2022-10-10T09:47:56.122Z,15.70
2022-10-10T09:50:25.458Z,15.60
2022-10-10T09:52:57.467Z,15.40
2022-10-10T09:55:27.780Z,15.20
2022-10-10T09:57:58.754Z,15.00
2022-10-10T10:00:35.955Z,14.90
2022-10-10T10:03:13.137Z,14.90
2022-10-10T10:05:42.836Z,14.80
2022-10-10T10:08:26.303Z,14.80
2022-10-10T10:10:58.162Z,14.90
2022-10-10T10:13:30.701Z,14.90
2022-10-10T10:16:04.077Z,15.10
2022-10-10T10:18:38.857Z,15.40
2022-10-10T10:21:23.492Z,15.50
2022-10-10T10:23:56.074Z,15.70
2022-10-10T10:26:29.650Z,15.90
2022-10-10T10:29:00.778Z,16.10
2022-10-10T10:31:51.259Z,16.30
2022-10-10T10:34:40.770Z,16.70
2022-10-10T10:37:18.935Z,17.10
2022-10-10T10:40:01.730Z,17.40
2022-10-10T10:42:47.162Z,17.60
2022-10-10T10:45:18.362Z,17.70
2022-10-10T10:47:59.869Z,17.50
2022-10-10T10:50:40.334Z,17.40
2022-10-10T10:53:17.105Z,17.30
2022-10-10T10:55:51.229Z,17.40
2022-10-10T11:01:56.142Z,17.50
2022-10-10T11:05:24.293Z,17.60
2022-10-10T11:07:49.202Z,17.70
2022-10-10T11:10:25.669Z,17.60
2022-10-10T11:13:04.093Z,17.70
2022-10-10T11:16:04.810Z,17.90
2022-10-10T11:18:31.652Z,18.10
2022-10-10T11:21:05.809Z,18.10
2022-10-10T11:23:39.997Z,18.20
2022-10-10T11:26:14.053Z,18.20
2022-10-10T11:28:50.393Z,18.20
2022-10-10T11:31:24.349Z,18.20
2022-10-10T11:33:57.716Z,18.20
2022-10-10T11:36:28.322Z,18.20
2022-10-10T11:39:07.586Z,18.20
2022-10-10T11:41:40.277Z,18.20
2022-10-10T11:44:16.350Z,18.30
2022-10-10T11:46:52.004Z,18.30
2022-10-10T11:49:25.006Z,18.30
2022-10-10T11:52:35.622Z,18.40
2022-10-10T11:55:11.707Z,18.30
2022-10-10T11:57:46.173Z,18.40
2022-10-10T12:00:17.689Z,18.50
2022-10-10T12:03:01.619Z,18.60
2022-10-10T12:05:35.285Z,18.70
2022-10-10T12:08:11.529Z,18.80
2022-10-10T12:10:59.123Z,18.70
2022-10-10T12:13:56.183Z,18.80
2022-10-10T12:16:30.903Z,18.90
2022-10-10T12:19:26.673Z,18.90
2022-10-10T12:22:02.093Z,19.00
2022-10-10T12:24:42.762Z,19.00
2022-10-10T12:27:51.351Z,18.90
2022-10-10T12:30:28.532Z,19.10
2022-10-10T12:32:58.717Z,19.10
2022-10-10T12:35:39.213Z,19.20
2022-10-10T12:38:22.895Z,19.20
2022-10-10T12:41:25.146Z,19.30
2022-10-10T12:44:27.213Z,19.40
2022-10-10T12:47:46.212Z,19.40
2022-10-10T12:50:29.858Z,19.50
2022-10-10T12:53:00.516Z,19.50
2022-10-10T12:55:32.746Z,19.60
2022-10-10T12:58:04.468Z,19.50
2022-10-10T13:00:41.971Z,19.50
2022-10-10T13:03:19.709Z,19.40
2022-10-10T13:05:52.893Z,19.40
2022-10-10T13:08:25.623Z,19.40
2022-10-10T13:11:07.968Z,19.50
2022-10-10T13:13:36.213Z,19.60
2022-10-10T13:16:13.826Z,19.60
2022-10-10T13:18:51.223Z,19.70
2022-10-10T13:21:22.719Z,19.80
2022-10-10T13:26:46.182Z,19.80
2022-10-10T13:29:23.524Z,19.80
2022-10-10T13:31:55.431Z,19.90
2022-10-10T13:34:27.597Z,19.90
2022-10-10T13:37:02.709Z,19.90
2022-10-10T13:39:38.444Z,19.80
2022-10-10T13:42:07.973Z,19.80
2022-10-10T13:44:50.708Z,19.80
2022-10-10T13:47:49.941Z,19.80
2022-10-10T13:50:24.831Z,19.90
2022-10-10T13:53:29.170Z,19.90
2022-10-10T13:56:06.215Z,20.00
2022-10-10T13:58:42.046Z,20.00
2022-10-10T14:01:32.696Z,20.00
2022-10-10T14:04:19.810Z,20.00
2022-10-10T14:06:58.076Z,20.00
2022-10-10T14:09:30.212Z,20.00
2022-10-10T14:12:00.461Z,20.00
2022-10-10T14:14:37.204Z,20.00
2022-10-10T14:17:07.216Z,19.90
2022-10-10T14:19:36.988Z,19.70
2022-10-10T14:22:05.773Z,19.70
2022-10-10T14:24:49.460Z,19.70
2022-10-10T14:27:26.218Z,19.70
2022-10-10T14:29:58.485Z,19.80
2022-10-10T14:32:27.168Z,19.90
2022-10-10T14:35:11.943Z,19.80
2022-10-10T14:37:40.822Z,19.80
2022-10-10T14:40:20.261Z,19.80
2022-10-10T14:42:48.962Z,19.80
2022-10-10T14:45:23.863Z,19.70
2022-10-10T14:47:52.109Z,19.60
2022-10-10T14:50:24.776Z,19.60
2022-10-10T14:52:53.214Z,19.50
2022-10-10T14:55:21.341Z,19.50
2022-10-10T14:57:49.417Z,19.40
2022-10-10T15:00:19.703Z,19.30
2022-10-10T15:02:48.689Z,19.30
2022-10-10T15:05:25.014Z,19.30
2022-10-10T15:07:55.762Z,19.30
2022-10-10T15:10:39.118Z,19.20
2022-10-10T15:13:07.362Z,19.10
2022-10-10T15:15:35.585Z,18.90
2022-10-10T15:18:03.755Z,18.90
2022-10-10T15:20:36.724Z,18.80
2022-10-10T15:23:09.085Z,18.80
2022-10-10T15:25:38.019Z,18.60
2022-10-10T15:28:06.589Z,18.50
2022-10-10T15:30:37.407Z,18.40
2022-10-10T15:33:09.059Z,18.30
2022-10-10T15:36:04.010Z,18.10
2022-10-10T15:38:26.864Z,18.10
2022-10-10T15:40:59.225Z,18.10
2022-10-10T15:43:28.432Z,18.10
2022-10-10T15:45:58.859Z,18.20
2022-10-10T15:48:27.177Z,18.20
2022-10-10T15:50:56.693Z,18.30
2022-10-10T15:53:24.837Z,18.40
2022-10-10T15:55:55.261Z,18.50
2022-10-10T15:58:23.337Z,18.50
2022-10-10T16:00:51.491Z,18.50
2022-10-10T16:03:19.558Z,18.50
2022-10-10T16:05:47.789Z,18.50
2022-10-10T16:08:18.991Z,18.50
2022-10-10T16:10:47.077Z,18.40
2022-10-10T16:13:15.328Z,18.30
2022-10-10T16:15:44.673Z,18.10
2022-10-10T16:18:12.752Z,17.90
2022-10-10T16:20:42.817Z,17.60
2022-10-10T16:23:10.856Z,17.40
2022-10-10T16:25:40.276Z,17.10
2022-10-10T16:28:11.285Z,16.80
2022-10-10T16:30:39.415Z,16.50
2022-10-10T16:33:07.413Z,16.30
2022-10-10T16:35:39.264Z,16.10
2022-10-10T16:38:07.302Z,15.90
2022-10-10T16:40:37.296Z,15.70
2022-10-10T16:43:07.202Z,15.50
2022-10-10T16:45:35.344Z,15.40
2022-10-10T16:48:03.429Z,15.30
2022-10-10T16:50:31.396Z,15.20
2022-10-10T16:53:00.206Z,15.10
2022-10-10T16:55:29.644Z,14.90
2022-10-10T16:58:00.603Z,14.80
2022-10-10T17:00:30.032Z,14.60
2022-10-10T17:02:58.053Z,14.60
2022-10-10T17:05:26.135Z,14.50
2022-10-10T17:07:54.323Z,14.40
2022-10-10T17:10:24.367Z,14.40
2022-10-10T17:12:52.406Z,14.40
2022-10-10T17:15:20.445Z,14.40
2022-10-10T17:17:52.264Z,14.40
2022-10-10T17:20:20.356Z,14.40
2022-10-10T17:22:48.502Z,14.40
2022-10-10T17:25:16.957Z,14.30
2022-10-10T17:27:44.998Z,14.40
2022-10-10T17:30:18.106Z,14.30
2022-10-10T17:39:24.350Z,14.00
2022-10-10T17:42:04.668Z,13.90
2022-10-10T17:44:39.120Z,13.80
2022-10-10T17:47:10.278Z,13.80
2022-10-10T17:49:38.514Z,13.80
2022-10-10T17:52:08.052Z,13.80
2022-10-10T17:54:36.161Z,13.90
2022-10-10T17:57:04.377Z,13.90
2022-10-10T17:59:47.585Z,14.10
2022-10-10T18:02:17.111Z,14.20
2022-10-10T18:04:46.117Z,14.40
2022-10-10T18:07:19.683Z,14.50
2022-10-10T18:09:50.838Z,14.60
2022-10-10T18:12:21.061Z,14.90
2022-10-10T18:15:02.298Z,15.10
2022-10-10T18:17:32.357Z,15.30
2022-10-10T18:23:33.946Z,15.80
2022-10-10T18:26:20.937Z,16.00
2022-10-10T18:28:50.260Z,16.00
2022-10-10T18:31:25.149Z,16.00
2022-10-10T18:33:53.738Z,16.10
2022-10-10T18:36:24.782Z,16.10
2022-10-10T18:38:57.524Z,16.10
2022-10-10T18:41:30.546Z,16.10
2022-10-10T18:43:58.660Z,16.00
2022-10-10T18:46:53.174Z,15.90
2022-10-10T18:49:21.525Z,16.00
2022-10-10T18:51:55.747Z,15.90
2022-10-10T18:54:27.215Z,16.00
2022-10-10T18:56:56.565Z,16.00
2022-10-10T18:59:24.742Z,16.00
2022-10-10T19:01:53.054Z,16.00
2022-10-10T19:04:22.403Z,16.00
2022-10-10T19:06:54.674Z,15.90
2022-10-10T19:09:27.078Z,15.90
2022-10-10T19:11:55.284Z,15.90
2022-10-10T19:14:23.780Z,15.90
2022-10-10T19:16:51.953Z,15.90
2022-10-10T19:19:20.860Z,16.00
2022-10-10T19:21:49.750Z,16.00
2022-10-10T19:24:22.478Z,16.00
2022-10-10T20:37:04.856Z,14.80
2022-10-10T20:39:45.034Z,14.80
2022-10-10T20:42:25.622Z,14.50
2022-10-10T20:44:55.152Z,14.40
2022-10-10T20:47:25.191Z,14.30
2022-10-10T20:50:00.996Z,14.20
2022-10-10T20:55:36.284Z,13.80
2022-10-10T21:06:14.591Z,13.40
2022-10-10T21:08:44.381Z,13.30
2022-10-10T21:11:14.487Z,13.40
2022-10-10T21:13:44.338Z,13.40
2022-10-10T21:16:14.861Z,13.30
2022-10-10T21:18:53.558Z,13.30
2022-10-10T21:21:26.283Z,13.30
2022-10-10T21:23:56.845Z,13.20
2022-10-10T21:26:26.710Z,13.20
2022-10-10T21:28:55.888Z,13.20
2022-10-10T21:31:26.468Z,13.20
2022-10-10T21:33:55.506Z,13.10
2022-10-10T21:36:25.965Z,13.20
2022-10-10T21:38:55.990Z,13.20
2022-10-10T21:41:25.144Z,13.10
2022-10-10T21:43:55.739Z,13.10
2022-10-10T21:46:29.135Z,13.10
2022-10-10T21:48:59.982Z,13.10
2022-10-10T21:51:28.030Z,13.20
2022-10-10T21:53:59.716Z,13.20
2022-10-10T21:56:28.950Z,13.30
2022-10-10T21:59:01.073Z,13.20
2022-10-10T22:01:32.875Z,13.30
2022-10-10T22:04:02.761Z,13.30
2022-10-10T22:06:31.593Z,13.40
2022-10-10T22:09:02.123Z,13.50
2022-10-10T22:11:32.531Z,13.60
2022-10-10T22:14:02.568Z,13.60
2022-10-10T22:16:31.355Z,13.70
2022-10-10T22:18:59.888Z,13.70
2022-10-10T22:21:31.525Z,13.60
2022-10-10T22:24:02.811Z,13.60
2022-10-10T22:26:31.852Z,13.60
2022-10-10T22:28:59.948Z,13.50
2022-10-10T22:31:29.265Z,13.50
2022-10-10T22:33:58.203Z,13.50
2022-10-10T22:36:26.208Z,13.50
2022-10-10T22:38:54.382Z,13.50
2022-10-10T22:41:23.727Z,13.50
2022-10-10T22:43:51.770Z,13.60
2022-10-10T22:46:19.766Z,13.50
2022-10-10T22:48:47.734Z,13.60
2022-10-10T22:51:17.941Z,13.70
2022-10-10T22:53:47.675Z,13.70
2022-10-10T22:56:17.093Z,13.70
2022-10-10T22:58:48.910Z,13.70
2022-10-10T23:01:18.855Z,13.70
2022-10-10T23:03:47.177Z,13.70
2022-10-10T23:06:15.680Z,13.70
2022-10-10T23:08:43.693Z,13.80
2022-10-10T23:11:11.612Z,13.90
2022-10-10T23:13:39.584Z,13.90
2022-10-10T23:16:10.849Z,13.90
2022-10-10T23:18:39.091Z,13.90
2022-10-10T23:21:07.221Z,13.90
2022-10-10T23:23:35.237Z,13.90
2022-10-10T23:26:07.238Z,13.90
2022-10-10T23:28:36.641Z,13.90
2022-10-10T23:31:06.814Z,13.90
2022-10-10T23:33:37.235Z,13.90
2022-10-10T23:36:07.317Z,13.90
2022-10-10T23:38:35.981Z,13.90
2022-10-10T23:41:04.195Z,13.80
2022-10-10T23:43:32.274Z,13.80
2022-10-10T23:46:00.214Z,13.80
2022-10-10T23:48:28.157Z,13.80
2022-10-10T23:50:57.566Z,13.80
2022-10-10T23:53:25.555Z,13.80
2022-10-10T23:55:53.481Z,13.90
2022-10-10T23:58:21.559Z,13.80
